Time;durP1;ratioP1;P1;durP2;ratioP2;P2;SDS_P1;SDS_P2;PMS_P1;PMS_P2;Temp;Humidity;BMP_temperature;BMP_pressure;BME280_temperature;BME280_humidity;BME280_pressure;Samples;Min_cycle;Max_cycle;Signal;HPM_P1;HPM_P2
2023/05/20 00:00:34;;;;;;;3.00;2.50;;;13.60;90.90;;;;;;10514227;28;20654;-74
2023/05/20 00:05:34;;;;;;;3.17;2.33;;;13.60;91.30;;;;;;10516533;28;20664;-73
2023/05/20 00:10:35;;;;;;;4.33;2.40;;;13.60;91.60;;;;;;10514135;28;20320;-73
2023/05/20 00:15:36;;;;;;;4.10;2.53;;;13.50;91.90;;;;;;10514508;28;20732;-73
2023/05/20 00:20:36;;;;;;;3.20;2.00;;;13.50;92.30;;;;;;10487474;28;21074;-73
2023/05/20 00:25:37;;;;;;;9.47;2.50;;;13.40;92.60;;;;;;10499689;28;20225;-72
2023/05/20 00:30:40;;;;;;;5.73;2.80;;;13.40;93.00;;;;;;10506123;28;20257;-73
2023/05/20 00:35:41;;;;;;;6.43;2.63;;;13.30;93.30;;;;;;10519050;28;20752;-73
2023/05/20 00:40:42;;;;;;;4.90;2.10;;;13.30;93.70;;;;;;10495342;28;20235;-72
2023/05/20 00:45:42;;;;;;;6.00;2.50;;;13.30;94.10;;;;;;10520027;28;20259;-72
2023/05/20 00:50:43;;;;;;;5.83;2.40;;;13.20;94.50;;;;;;10503157;28;20351;-72
2023/05/20 00:55:44;;;;;;;3.50;2.53;;;13.20;95.00;;;;;;10512876;28;20586;-73
2023/05/20 01:00:45;;;;;;;3.33;2.17;;;13.10;95.60;;;;;;10500987;28;20780;-71
2023/05/20 01:05:46;;;;;;;3.13;2.10;;;13.10;96.30;;;;;;10513612;28;20264;-72
2023/05/20 01:10:50;;;;;;;4.43;2.50;;;13.00;97.00;;;;;;10512079;28;20268;-72
2023/05/20 01:15:54;;;;;;;3.27;2.40;;;13.00;97.90;;;;;;10518188;28;20218;-72
2023/05/20 01:21:00;;;;;;;2.50;2.30;;;12.90;98.60;;;;;;10504837;28;20317;-73
2023/05/20 01:26:01;;;;;;;4.17;2.70;;;12.90;99.40;;;;;;10509026;28;20253;-74
2023/05/20 01:31:14;;;;;;;4.73;2.80;;;12.90;99.90;;;;;;10498103;28;20226;-73
2023/05/20 01:36:15;;;;;;;3.60;2.50;;;12.80;99.90;;;;;;10501697;28;20682;-74
2023/05/20 01:41:16;;;;;;;6.73;2.80;;;12.80;99.90;;;;;;10514064;28;20226;-72
2023/05/20 01:46:17;;;;;;;5.03;2.60;;;12.70;99.90;;;;;;10497226;28;20306;-73
2023/05/20 01:51:17;;;;;;;4.23;2.67;;;12.70;99.90;;;;;;10517843;28;20293;-72
2023/05/20 01:56:18;;;;;;;3.27;2.97;;;12.70;99.90;;;;;;10519907;28;20736;-73
2023/05/20 02:01:18;;;;;;;3.27;2.60;;;12.60;99.90;;;;;;10514419;28;20639;-73
2023/05/20 02:06:19;;;;;;;4.30;2.80;;;12.60;99.90;;;;;;10491640;28;20219;-73
2023/05/20 02:11:20;;;;;;;4.40;3.00;;;12.60;99.90;;;;;;10526378;28;20267;-73
2023/05/20 02:16:21;;;;;;;4.70;3.00;;;12.50;99.90;;;;;;10511439;28;20623;-74
2023/05/20 02:21:22;;;;;;;4.57;3.03;;;12.50;99.90;;;;;;10505270;28;20230;-73
2023/05/20 02:26:22;;;;;;;4.00;3.30;;;12.50;99.90;;;;;;10510126;28;20223;-72
2023/05/20 02:31:24;;;;;;;5.93;3.30;;;12.40;99.90;;;;;;10521031;28;20317;-73
2023/05/20 02:36:26;;;;;;;5.43;2.73;;;12.40;99.90;;;;;;10508635;28;20222;-73
2023/05/20 02:41:27;;;;;;;4.30;3.20;;;12.40;99.90;;;;;;10491685;28;20227;-73
2023/05/20 02:46:27;;;;;;;3.33;2.90;;;12.40;99.90;;;;;;10514484;28;20221;-74
2023/05/20 02:51:30;;;;;;;6.57;3.17;;;12.40;99.90;;;;;;10499879;28;20310;-72
2023/05/20 02:56:32;;;;;;;3.50;3.00;;;12.30;99.90;;;;;;10514645;28;20241;-72
2023/05/20 03:01:34;;;;;;;4.93;3.07;;;12.30;99.90;;;;;;10508078;28;20231;-73
2023/05/20 03:06:34;;;;;;;7.30;3.33;;;12.30;99.90;;;;;;10515371;28;20330;-72
2023/05/20 03:11:35;;;;;;;5.60;3.27;;;12.30;99.90;;;;;;10497922;28;20313;-73
2023/05/20 03:16:36;;;;;;;6.90;3.43;;;12.30;99.90;;;;;;10515276;28;20577;-72
2023/05/20 03:21:36;;;;;;;3.67;3.10;;;12.30;99.90;;;;;;10522840;28;20697;-73
2023/05/20 03:26:41;;;;;;;5.47;3.63;;;12.30;99.90;;;;;;10505202;28;20230;-73
2023/05/20 03:31:42;;;;;;;4.73;3.33;;;12.30;99.90;;;;;;10497420;28;20275;-72
2023/05/20 03:36:43;;;;;;;4.43;2.80;;;12.30;99.90;;;;;;10489174;28;20284;-73
2023/05/20 03:41:43;;;;;;;6.93;3.13;;;12.30;99.90;;;;;;10513189;28;20291;-73
2023/05/20 03:46:44;;;;;;;4.60;3.57;;;12.30;99.90;;;;;;10489433;28;20226;-73
2023/05/20 03:51:44;;;;;;;5.87;3.40;;;12.40;99.90;;;;;;10513846;28;20222;-73
2023/05/20 03:56:45;;;;;;;5.90;3.30;;;12.40;99.90;;;;;;10494878;28;20791;-72
2023/05/20 04:01:46;;;;;;;5.77;3.30;;;12.40;99.90;;;;;;10519757;28;20742;-73
2023/05/20 04:06:47;;;;;;;4.77;3.43;;;12.40;99.90;;;;;;10522083;28;20558;-72
2023/05/20 04:11:47;;;;;;;7.23;3.30;;;12.50;99.90;;;;;;10505892;28;20230;-72
2023/05/20 04:16:49;;;;;;;3.87;3.30;;;12.60;99.90;;;;;;10511623;28;20217;-72
2023/05/20 04:21:49;;;;;;;4.90;3.63;;;12.70;99.90;;;;;;10514063;28;20281;-73
2023/05/20 04:26:53;;;;;;;6.60;3.43;;;12.80;99.90;;;;;;10512635;28;20215;-72
2023/05/20 04:31:57;;;;;;;5.30;3.23;;;12.90;99.90;;;;;;10515569;28;20226;-72
2023/05/20 04:36:59;;;;;;;6.00;3.37;;;13.00;99.90;;;;;;10519104;28;20223;-72
2023/05/20 04:41:59;;;;;;;4.93;3.10;;;13.10;99.90;;;;;;10516440;28;20230;-73
2023/05/20 04:47:00;;;;;;;4.37;3.00;;;13.10;99.90;;;;;;10512611;28;20693;-73
2023/05/20 04:52:00;;;;;;;5.80;3.60;;;13.20;99.90;;;;;;10508769;28;20223;-73
2023/05/20 04:57:01;;;;;;;4.00;3.57;;;13.40;99.90;;;;;;10520655;28;20222;-74
2023/05/20 05:02:02;;;;;;;3.97;3.13;;;13.60;99.90;;;;;;10515618;28;20219;-73
2023/05/20 05:07:04;;;;;;;4.33;3.30;;;13.90;99.90;;;;;;10516490;28;20226;-72
2023/05/20 05:12:04;;;;;;;3.50;3.20;;;14.30;99.90;;;;;;10493062;28;20272;-73
2023/05/20 05:17:05;;;;;;;5.77;3.40;;;14.60;99.90;;;;;;10515928;28;20259;-73
2023/05/20 05:22:05;;;;;;;4.07;3.67;;;14.70;99.90;;;;;;10519169;28;20222;-74
2023/05/20 05:27:06;;;;;;;6.27;3.20;;;14.90;99.90;;;;;;10519612;28;20226;-73
2023/05/20 05:32:07;;;;;;;4.63;3.70;;;15.00;99.90;;;;;;10480894;28;20635;-73
2023/05/20 05:37:07;;;;;;;4.60;3.37;;;15.30;99.90;;;;;;10501030;28;20245;-74
2023/05/20 05:42:08;;;;;;;5.33;3.50;;;15.60;99.90;;;;;;10514338;28;20233;-74
2023/05/20 05:47:08;;;;;;;6.83;3.70;;;16.40;99.90;;;;;;10514311;28;20236;-73
2023/05/20 05:52:09;;;;;;;5.87;3.30;;;16.90;99.90;;;;;;10496442;28;20218;-72
2023/05/20 05:57:10;;;;;;;8.07;3.90;;;16.40;99.90;;;;;;10520377;28;20222;-72
2023/05/20 06:02:13;;;;;;;5.47;3.60;;;15.90;99.90;;;;;;10501133;28;20229;-73
2023/05/20 06:07:14;;;;;;;8.20;3.87;;;15.80;99.90;;;;;;10496861;28;20210;-73
2023/05/20 06:12:15;;;;;;;4.30;3.90;;;15.60;99.90;;;;;;10524652;28;20313;-73
2023/05/20 06:17:17;;;;;;;5.37;3.83;;;15.40;99.90;;;;;;10505879;28;20253;-72
2023/05/20 06:22:17;;;;;;;6.17;3.73;;;15.40;99.90;;;;;;10483266;28;20233;-74
2023/05/20 06:27:18;;;;;;;6.23;3.87;;;15.60;99.90;;;;;;10505831;28;20224;-73
2023/05/20 06:32:18;;;;;;;4.23;3.73;;;15.60;99.90;;;;;;10513804;28;20234;-73
2023/05/20 06:37:23;;;;;;;5.07;4.00;;;15.60;99.90;;;;;;10510666;28;20238;-73
2023/05/20 06:42:23;;;;;;;6.27;3.40;;;15.70;99.90;;;;;;10496694;28;20241;-74
2023/05/20 06:47:24;;;;;;;5.50;3.90;;;15.80;99.90;;;;;;10491352;28;20733;-75
2023/05/20 06:52:25;;;;;;;4.90;3.87;;;16.00;99.90;;;;;;10496018;28;20222;-73
2023/05/20 06:57:25;;;;;;;6.47;4.40;;;16.10;99.90;;;;;;10516284;28;20276;-73
2023/05/20 07:02:26;;;;;;;4.73;3.80;;;15.90;99.90;;;;;;10490561;28;20223;-72
2023/05/20 07:07:26;;;;;;;5.57;3.77;;;16.00;99.90;;;;;;10513035;28;20222;-72
2023/05/20 07:12:27;;;;;;;4.67;4.20;;;15.80;99.90;;;;;;10508428;28;20222;-73
2023/05/20 07:17:28;;;;;;;6.27;4.07;;;15.80;99.90;;;;;;10511660;28;20958;-73
2023/05/20 07:22:28;;;;;;;5.57;4.57;;;15.80;99.90;;;;;;10527641;28;20229;-73
2023/05/20 07:27:29;;;;;;;12.30;7.47;;;16.00;99.90;;;;;;10513126;28;20593;-73
2023/05/20 07:32:30;;;;;;;6.40;4.60;;;16.30;99.90;;;;;;10489069;28;20234;-74
2023/05/20 07:37:30;;;;;;;8.37;4.53;;;16.40;99.90;;;;;;10512816;28;20265;-74
2023/05/20 07:42:31;;;;;;;5.80;4.60;;;17.20;99.90;;;;;;10499325;28;20218;-73
2023/05/20 07:47:32;;;;;;;6.40;4.83;;;18.00;99.90;;;;;;10515367;28;20925;-74
2023/05/20 07:52:33;;;;;;;5.97;4.43;;;18.30;99.90;;;;;;10514634;28;20230;-74
2023/05/20 07:57:33;;;;;;;6.03;4.37;;;18.40;99.90;;;;;;10521556;28;20218;-74
2023/05/20 08:02:34;;;;;;;6.63;4.50;;;18.80;99.90;;;;;;10529710;28;20309;-73
2023/05/20 08:07:37;;;;;;;5.67;4.10;;;19.10;99.90;;;;;;10495634;28;20227;-74
2023/05/20 08:12:38;;;;;;;5.47;4.33;;;19.10;99.90;;;;;;10527052;28;20721;-72
2023/05/20 08:17:38;;;;;;;6.43;4.60;;;20.00;99.90;;;;;;10523004;28;20247;-72
2023/05/20 08:22:39;;;;;;;5.43;4.33;;;20.40;99.90;;;;;;10513146;28;20227;-74
2023/05/20 08:27:40;;;;;;;5.30;4.00;;;20.90;99.90;;;;;;10529436;28;20271;-74
2023/05/20 08:32:41;;;;;;;5.63;4.17;;;21.80;99.90;;;;;;10512879;28;20782;-74
2023/05/20 08:37:41;;;;;;;7.33;4.27;;;21.30;99.60;;;;;;10519839;28;20765;-74
2023/05/20 08:42:43;;;;;;;4.97;4.50;;;21.30;99.90;;;;;;10494437;28;20284;-74
2023/05/20 08:47:44;;;;;;;4.93;4.47;;;22.40;97.10;;;;;;10518605;28;20227;-73
2023/05/20 08:52:45;;;;;;;7.07;4.70;;;22.70;95.70;;;;;;10492737;28;20678;-73
2023/05/20 08:57:50;;;;;;;6.43;4.27;;;22.50;95.10;;;;;;10518107;28;20223;-74
2023/05/20 09:02:51;;;;;;;4.80;4.40;;;22.80;95.30;;;;;;10519447;28;20768;-73
2023/05/20 09:07:51;;;;;;;5.30;4.80;;;22.20;95.10;;;;;;10477550;28;20294;-73
2023/05/20 09:12:55;;;;;;;8.87;5.00;;;22.10;95.30;;;;;;10500021;28;20215;-74
2023/05/20 09:18:00;;;;;;;6.83;4.13;;;21.90;95.90;;;;;;10520881;28;20220;-73
2023/05/20 09:23:01;;;;;;;5.17;4.10;;;23.70;93.00;;;;;;10489508;28;20238;-73
2023/05/20 09:28:07;;;;;;;9.23;4.70;;;25.10;88.60;;;;;;10512230;28;20206;-73
2023/05/20 09:33:11;;;;;;;5.70;4.80;;;24.80;87.10;;;;;;10500886;28;20318;-74
2023/05/20 09:38:13;;;;;;;7.53;4.60;;;23.90;88.60;;;;;;10506460;28;20248;-73
2023/05/20 09:43:14;;;;;;;7.27;5.10;;;24.80;85.30;;;;;;10513530;28;20227;-73
2023/05/20 09:48:16;;;;;;;6.73;4.90;;;23.90;85.50;;;;;;10515375;28;20217;-73
2023/05/20 09:53:18;;;;;;;4.80;4.40;;;25.00;82.70;;;;;;10500678;28;20699;-74
2023/05/20 09:58:19;;;;;;;5.73;4.80;;;26.80;76.80;;;;;;10513685;28;20218;-73
2023/05/20 10:03:23;;;;;;;5.67;4.93;;;28.40;69.90;;;;;;10509577;28;20698;-74
2023/05/20 10:08:38;;;;;;;5.87;4.70;;;28.00;68.20;;;;;;10497970;28;20215;-73
2023/05/20 10:14:27;;;;;;;4.77;4.00;;;27.60;68.90;;;;;;10499520;28;20715;-73
2023/05/20 10:19:34;;;;;;;5.97;4.67;;;27.40;70.50;;;;;;10470255;28;20289;-73
2023/05/20 10:24:42;;;;;;;6.97;4.70;;;28.00;66.00;;;;;;10509125;28;20599;-74
2023/05/20 10:29:50;;;;;;;6.23;4.00;;;29.00;63.60;;;;;;10497704;28;20222;-74
2023/05/20 10:34:51;;;;;;;5.97;5.40;;;30.20;56.40;;;;;;10508876;28;20752;-73
2023/05/20 10:40:05;;;;;;;5.07;4.67;;;28.70;57.30;;;;;;10515432;28;20279;-74
2023/05/20 10:45:10;;;;;;;5.37;4.73;;;27.90;60.00;;;;;;10507808;28;20238;-74
2023/05/20 10:50:43;;;;;;;5.53;4.67;;;27.30;60.60;;;;;;10511671;28;20245;-73
2023/05/20 10:55:53;;;;;;;5.37;4.90;;;28.10;59.50;;;;;;10489926;28;20215;-73
2023/05/20 11:00:54;;;;;;;6.23;4.77;;;27.60;60.10;;;;;;10497830;28;20271;-74
2023/05/20 11:05:55;;;;;;;5.40;4.90;;;26.60;62.80;;;;;;10513333;28;20217;-73
2023/05/20 11:10:59;;;;;;;6.87;5.13;;;27.60;61.30;;;;;;10508558;28;20274;-73
2023/05/20 11:16:00;;;;;;;5.93;5.10;;;27.30;59.80;;;;;;10521843;28;20306;-73
2023/05/20 11:21:01;;;;;;;6.33;4.90;;;27.60;59.10;;;;;;10513317;28;20264;-73
2023/05/20 11:26:02;;;;;;;6.40;5.10;;;28.10;59.40;;;;;;10505866;28;20825;-73
2023/05/20 11:31:03;;;;;;;5.93;5.37;;;27.10;59.40;;;;;;10515083;28;20310;-73
2023/05/20 11:36:04;;;;;;;6.83;5.70;;;25.20;64.50;;;;;;10514870;28;20215;-73
2023/05/20 11:41:05;;;;;;;6.67;5.50;;;25.30;65.70;;;;;;10510599;28;20227;-73
2023/05/20 11:46:05;;;;;;;7.77;5.57;;;24.80;68.80;;;;;;10509091;28;20218;-73
2023/05/20 11:51:07;;;;;;;9.13;6.00;;;23.60;72.50;;;;;;10506118;28;20227;-73
2023/05/20 11:56:08;;;;;;;6.50;5.90;;;23.40;74.70;;;;;;10505818;28;20223;-74
2023/05/20 12:01:08;;;;;;;7.67;6.57;;;23.10;73.40;;;;;;10515545;28;20683;-73
2023/05/20 12:06:11;;;;;;;11.33;6.30;;;23.30;75.90;;;;;;10504991;28;20246;-74
2023/05/20 12:11:12;;;;;;;9.37;6.00;;;23.30;74.70;;;;;;10509007;28;20218;-74
2023/05/20 12:16:13;;;;;;;10.53;6.40;;;23.40;76.10;;;;;;10495181;28;20249;-73
2023/05/20 12:21:13;;;;;;;10.43;6.07;;;23.20;75.50;;;;;;10506071;28;20233;-74
2023/05/20 12:26:14;;;;;;;7.10;6.40;;;23.10;77.80;;;;;;10522435;28;20219;-74
2023/05/20 12:31:15;;;;;;;7.47;6.30;;;23.10;78.00;;;;;;10520186;28;20220;-73
2023/05/20 12:36:16;;;;;;;5.90;5.30;;;23.50;77.40;;;;;;10516286;28;20274;-74
2023/05/20 12:41:16;;;;;;;8.30;6.30;;;23.40;75.60;;;;;;10518872;28;20318;-73
2023/05/20 12:46:20;;;;;;;8.30;6.57;;;23.00;78.70;;;;;;10521857;28;20274;-73
2023/05/20 12:51:20;;;;;;;8.03;6.27;;;22.40;81.40;;;;;;10515953;28;20216;-74
2023/05/20 12:56:22;;;;;;;9.00;6.80;;;22.60;82.00;;;;;;10517315;28;20588;-73
2023/05/20 13:01:23;;;;;;;8.20;6.67;;;22.50;81.50;;;;;;10496300;28;20223;-73
2023/05/20 13:06:23;;;;;;;7.40;6.47;;;22.80;82.30;;;;;;10520605;28;20219;-74
2023/05/20 13:11:25;;;;;;;8.60;6.43;;;22.90;81.00;;;;;;10517522;28;20215;-73
2023/05/20 13:16:26;;;;;;;7.70;6.43;;;22.70;81.50;;;;;;10523724;28;20214;-73
2023/05/20 13:21:26;;;;;;;7.67;6.43;;;22.90;81.50;;;;;;10490577;28;20235;-73
2023/05/20 13:26:27;;;;;;;7.13;6.43;;;23.30;80.30;;;;;;10501167;28;20219;-74
2023/05/20 13:31:28;;;;;;;9.90;6.97;;;22.80;81.40;;;;;;10524717;28;20226;-73
2023/05/20 13:36:28;;;;;;;7.20;6.50;;;22.50;82.10;;;;;;10519135;28;20254;-73
2023/05/20 13:41:29;;;;;;;10.80;7.60;;;22.60;83.20;;;;;;10484200;28;20234;-73
2023/05/20 13:46:30;;;;;;;7.87;7.07;;;22.30;83.80;;;;;;10526781;28;20216;-72
2023/05/20 13:51:30;;;;;;;7.40;6.70;;;22.70;83.60;;;;;;10491391;28;20221;-73
2023/05/20 13:56:31;;;;;;;8.73;7.13;;;23.10;84.30;;;;;;10523563;28;20214;-72
2023/05/20 14:01:32;;;;;;;8.73;6.80;;;22.70;83.50;;;;;;10490498;28;20227;-72
2023/05/20 14:06:33;;;;;;;9.20;7.80;;;22.70;86.00;;;;;;10509112;28;20215;-73
2023/05/20 14:11:33;;;;;;;7.93;7.13;;;22.50;85.50;;;;;;10498498;28;20216;-74
2023/05/20 14:16:35;;;;;;;7.70;6.90;;;22.60;84.90;;;;;;10515035;28;20220;-73
2023/05/20 14:21:36;;;;;;;7.83;7.13;;;22.70;83.90;;;;;;10519443;28;20235;-73
2023/05/20 14:26:36;;;;;;;8.27;7.13;;;22.90;84.50;;;;;;10523040;28;20223;-74
2023/05/20 14:31:38;;;;;;;9.80;7.60;;;22.60;84.20;;;;;;10500473;28;20303;-72
2023/05/20 14:36:38;;;;;;;8.77;7.43;;;22.50;85.30;;;;;;10516581;28;20298;-73
2023/05/20 14:41:39;;;;;;;9.63;7.87;;;22.50;85.80;;;;;;10507436;28;20333;-73
2023/05/20 14:46:39;;;;;;;8.60;7.70;;;22.60;86.00;;;;;;10514822;28;20256;-73
2023/05/20 14:51:41;;;;;;;9.23;7.60;;;23.00;85.40;;;;;;10515094;28;20215;-73
2023/05/20 14:56:41;;;;;;;8.97;8.03;;;22.90;85.50;;;;;;10514748;28;20240;-73
2023/05/20 15:01:45;;;;;;;8.97;8.17;;;22.60;86.30;;;;;;10506839;28;20237;-74
2023/05/20 15:06:46;;;;;;;8.57;7.73;;;22.20;87.90;;;;;;10493945;28;20584;-73
2023/05/20 15:11:46;;;;;;;8.37;7.57;;;22.20;88.70;;;;;;10496537;28;20215;-73
2023/05/20 15:16:47;;;;;;;9.60;8.37;;;22.30;87.80;;;;;;10516719;28;20234;-74
2023/05/20 15:21:50;;;;;;;9.17;7.43;;;22.40;87.10;;;;;;10496419;28;20230;-72
2023/05/20 15:26:53;;;;;;;9.23;8.40;;;22.30;87.50;;;;;;10512121;28;20211;-73
2023/05/20 15:31:54;;;;;;;9.27;8.37;;;22.40;87.60;;;;;;10503446;28;20280;-74
2023/05/20 15:36:54;;;;;;;8.73;7.83;;;22.30;87.30;;;;;;10516283;28;20276;-74
2023/05/20 15:42:00;;;;;;;8.33;7.53;;;22.20;89.20;;;;;;10499542;28;20246;-72
2023/05/20 15:47:04;;;;;;;8.20;7.40;;;22.10;88.10;;;;;;10510113;28;20309;-73
2023/05/20 15:52:05;;;;;;;9.27;8.37;;;22.00;89.20;;;;;;10499451;28;20265;-73
2023/05/20 15:57:06;;;;;;;9.37;8.37;;;22.00;89.40;;;;;;10492320;28;20250;-74
2023/05/20 16:02:06;;;;;;;9.07;8.07;;;22.10;89.40;;;;;;10511077;28;20230;-73
2023/05/20 16:07:07;;;;;;;8.83;7.93;;;22.10;88.80;;;;;;10519069;28;20709;-74
2023/05/20 16:12:07;;;;;;;11.00;8.00;;;22.10;89.70;;;;;;10517718;28;20226;-73
2023/05/20 16:17:08;;;;;;;9.43;7.70;;;22.20;88.40;;;;;;10504389;28;20231;-73
2023/05/20 16:22:08;;;;;;;9.10;8.20;;;22.10;88.80;;;;;;10513093;28;20230;-74
2023/05/20 16:27:10;;;;;;;8.80;8.00;;;21.90;89.90;;;;;;10521955;28;20246;-74
2023/05/20 16:32:10;;;;;;;9.77;8.53;;;21.70;90.50;;;;;;10524170;28;20593;-74
2023/05/20 16:37:11;;;;;;;10.73;8.83;;;21.60;90.50;;;;;;10517395;28;20252;-73
2023/05/20 16:42:11;;;;;;;10.83;9.33;;;21.40;90.80;;;;;;10502865;28;20333;-73
2023/05/20 16:47:12;;;;;;;9.83;8.67;;;21.30;91.10;;;;;;10503004;28;20697;-73
2023/05/20 16:52:12;;;;;;;9.40;8.47;;;21.20;91.40;;;;;;10521616;28;20226;-73
2023/05/20 16:57:14;;;;;;;9.50;8.53;;;21.10;91.80;;;;;;10515991;28;20273;-73
2023/05/20 17:02:15;;;;;;;10.53;9.43;;;20.90;92.00;;;;;;10520519;28;20245;-73
2023/05/20 17:07:16;;;;;;;9.77;8.77;;;20.80;92.50;;;;;;10516068;28;20219;-73
2023/05/20 17:12:16;;;;;;;12.07;9.40;;;20.70;92.90;;;;;;10501071;28;20214;-73
2023/05/20 17:17:17;;;;;;;8.97;8.17;;;20.50;93.20;;;;;;10518645;28;20230;-74
2023/05/20 17:22:17;;;;;;;9.57;8.53;;;20.50;93.60;;;;;;10514520;28;20737;-74
2023/05/20 17:27:18;;;;;;;10.00;9.10;;;20.50;93.80;;;;;;10501433;28;20793;-73
2023/05/20 17:32:18;;;;;;;12.10;10.23;;;20.40;93.90;;;;;;10519824;28;20231;-72
2023/05/20 17:37:19;;;;;;;10.20;9.20;;;20.30;94.50;;;;;;10521841;28;20215;-74
2023/05/20 17:42:20;;;;;;;12.57;9.37;;;20.10;94.90;;;;;;10521348;28;20227;-74
2023/05/20 17:47:21;;;;;;;14.07;10.10;;;20.00;95.30;;;;;;10515080;28;20725;-73
2023/05/20 17:52:21;;;;;;;11.17;10.03;;;19.90;95.80;;;;;;10517790;28;20851;-73
2023/05/20 17:57:25;;;;;;;10.00;9.10;;;19.80;96.30;;;;;;10515705;28;20628;-73
2023/05/20 18:02:26;;;;;;;11.43;10.27;;;19.60;96.80;;;;;;10510831;28;20241;-74
2023/05/20 18:07:26;;;;;;;10.93;9.83;;;19.60;97.20;;;;;;10514934;28;20607;-72
2023/05/20 18:12:27;;;;;;;11.67;10.63;;;19.40;97.60;;;;;;10516271;28;20207;-73
2023/05/20 18:17:27;;;;;;;12.73;11.37;;;19.40;98.20;;;;;;10508147;28;20222;-72
2023/05/20 18:22:28;;;;;;;15.00;11.27;;;19.30;98.30;;;;;;10513603;28;20234;-73
2023/05/20 18:27:28;;;;;;;14.37;11.60;;;19.20;98.80;;;;;;10495301;28;20585;-74
2023/05/20 18:32:29;;;;;;;12.63;11.17;;;19.10;99.30;;;;;;10518050;28;20245;-74
2023/05/20 18:37:30;;;;;;;12.70;11.20;;;19.00;99.90;;;;;;10508364;28;20233;-74
2023/05/20 18:42:33;;;;;;;12.07;10.87;;;19.00;99.90;;;;;;10495722;28;20240;-73
2023/05/20 18:47:34;;;;;;;13.37;11.97;;;18.90;99.90;;;;;;10515758;28;20690;-73
2023/05/20 18:52:35;;;;;;;14.90;12.00;;;18.80;99.90;;;;;;10496144;28;20225;-73
2023/05/20 18:57:40;;;;;;;13.27;11.83;;;18.70;99.90;;;;;;10507458;28;20288;-74
2023/05/20 19:02:40;;;;;;;14.50;11.87;;;18.70;99.90;;;;;;10514811;28;20280;-73
2023/05/20 19:07:41;;;;;;;13.87;12.37;;;18.50;99.90;;;;;;10513432;28;20219;-74
2023/05/20 19:12:42;;;;;;;17.27;12.53;;;18.40;99.90;;;;;;10515414;28;20218;-72
2023/05/20 19:17:42;;;;;;;14.20;12.70;;;18.40;99.90;;;;;;10514627;28;20263;-74
2023/05/20 19:22:43;;;;;;;17.10;12.83;;;18.40;99.90;;;;;;10495719;28;20242;-73
2023/05/20 19:27:44;;;;;;;14.93;12.60;;;18.30;99.90;;;;;;10513479;28;20209;-73
2023/05/20 19:32:45;;;;;;;15.30;13.30;;;18.20;99.90;;;;;;10519929;28;20586;-73
2023/05/20 19:37:45;;;;;;;17.27;14.03;;;18.20;99.90;;;;;;10515448;28;20221;-72
2023/05/20 19:42:46;;;;;;;15.53;13.03;;;18.10;99.90;;;;;;10514688;28;20705;-73
2023/05/20 19:47:46;;;;;;;16.50;13.47;;;18.00;99.90;;;;;;10537535;28;20220;-73
2023/05/20 19:52:47;;;;;;;16.90;13.87;;;17.90;99.90;;;;;;10514451;28;20214;-73
2023/05/20 19:57:52;;;;;;;14.90;13.40;;;17.90;99.90;;;;;;10496887;28;20233;-74
2023/05/20 20:02:52;;;;;;;15.43;13.93;;;17.80;99.90;;;;;;10513781;28;20237;-74
2023/05/20 20:07:53;;;;;;;15.30;13.50;;;17.70;99.90;;;;;;10503199;28;20213;-73
2023/05/20 20:12:53;;;;;;;15.80;13.90;;;17.60;99.90;;;;;;10503946;28;20880;-74
2023/05/20 20:17:54;;;;;;;16.63;14.37;;;17.60;99.90;;;;;;10505445;28;20271;-74
2023/05/20 20:22:55;;;;;;;15.87;14.33;;;17.50;99.90;;;;;;10509289;28;20224;-73
2023/05/20 20:27:55;;;;;;;15.87;14.33;;;17.40;99.90;;;;;;10509773;28;20334;-73
2023/05/20 20:32:56;;;;;;;15.73;14.03;;;17.40;99.90;;;;;;10515384;28;20233;-74
2023/05/20 20:37:57;;;;;;;17.90;14.97;;;17.30;99.90;;;;;;10500940;28;20222;-73
2023/05/20 20:43:03;;;;;;;17.37;15.37;;;17.30;99.90;;;;;;10514973;28;20233;-73
2023/05/20 20:48:06;;;;;;;17.30;15.50;;;17.20;99.90;;;;;;10498879;28;20697;-73
2023/05/20 20:53:07;;;;;;;20.50;15.57;;;17.20;99.90;;;;;;10496547;28;20285;-73
2023/05/20 20:58:09;;;;;;;19.17;15.50;;;17.10;99.90;;;;;;10522479;28;20274;-73
2023/05/20 21:03:10;;;;;;;20.70;14.93;;;17.00;99.90;;;;;;10497005;28;20286;-73
2023/05/20 21:08:11;;;;;;;17.33;15.50;;;17.00;99.90;;;;;;10519089;28;20717;-73
2023/05/20 21:13:12;;;;;;;20.23;16.60;;;16.90;99.90;;;;;;10515277;28;20221;-73
2023/05/20 21:18:16;;;;;;;18.53;16.20;;;16.90;99.90;;;;;;10510548;28;20685;-74
2023/05/20 21:23:18;;;;;;;17.60;15.80;;;16.80;99.90;;;;;;10519103;28;20883;-72
2023/05/20 21:28:19;;;;;;;19.50;15.90;;;16.80;99.90;;;;;;10510620;28;20239;-73
2023/05/20 21:33:19;;;;;;;18.00;16.03;;;16.70;99.90;;;;;;10492003;28;20306;-73
2023/05/20 21:38:23;;;;;;;19.20;16.33;;;16.60;99.90;;;;;;10516929;28;20684;-75
2023/05/20 21:43:24;;;;;;;20.83;15.17;;;16.60;99.90;;;;;;10503331;28;20624;-73
2023/05/20 21:48:24;;;;;;;17.93;15.97;;;16.50;99.90;;;;;;10498249;28;20228;-73
2023/05/20 21:53:25;;;;;;;18.03;15.07;;;16.50;99.90;;;;;;10511294;28;20212;-73
2023/05/20 21:58:26;;;;;;;19.13;15.87;;;16.40;99.90;;;;;;10489584;28;20226;-75
2023/05/20 22:03:26;;;;;;;16.50;14.80;;;16.40;99.90;;;;;;10491320;28;20225;-73
2023/05/20 22:08:29;;;;;;;20.03;16.27;;;16.40;99.90;;;;;;10493738;28;20222;-73
2023/05/20 22:13:31;;;;;;;16.37;14.77;;;16.40;99.90;;;;;;10516832;28;20727;-73
2023/05/20 22:18:33;;;;;;;19.17;14.77;;;16.40;99.90;;;;;;10516375;28;20312;-73
2023/05/20 22:23:33;;;;;;;19.30;15.53;;;16.30;99.90;;;;;;10499573;28;20245;-73
2023/05/20 22:28:34;;;;;;;16.73;14.83;;;16.30;99.90;;;;;;10498175;28;20701;-73
2023/05/20 22:33:35;;;;;;;18.17;15.27;;;16.20;99.90;;;;;;10497154;28;20220;-73
2023/05/20 22:38:36;;;;;;;17.30;15.30;;;16.20;99.90;;;;;;10498933;28;20221;-73
2023/05/20 22:43:36;;;;;;;18.60;15.13;;;16.10;99.90;;;;;;10515676;28;20696;-73
2023/05/20 22:48:37;;;;;;;19.77;14.73;;;16.10;99.90;;;;;;10502107;28;20701;-74
2023/05/20 22:53:38;;;;;;;20.50;14.90;;;16.10;99.90;;;;;;10507837;28;20214;-74
2023/05/20 22:58:42;;;;;;;18.00;14.87;;;16.00;99.90;;;;;;10496956;28;20229;-74
2023/05/20 23:03:45;;;;;;;16.73;14.90;;;16.00;99.90;;;;;;10497250;28;20706;-73
2023/05/20 23:08:46;;;;;;;17.13;14.90;;;16.00;99.90;;;;;;10488785;28;20234;-72
2023/05/20 23:13:46;;;;;;;23.73;15.50;;;15.90;99.90;;;;;;10522360;28;20212;-73
2023/05/20 23:18:47;;;;;;;19.00;15.63;;;16.00;99.90;;;;;;10489977;28;20269;-73
2023/05/20 23:23:48;;;;;;;17.17;15.13;;;15.90;99.90;;;;;;10513877;28;20237;-74
2023/05/20 23:28:51;;;;;;;17.97;15.73;;;15.90;99.90;;;;;;10512535;28;20217;-73
2023/05/20 23:33:52;;;;;;;17.50;15.13;;;15.80;99.90;;;;;;10502720;28;20295;-74
2023/05/20 23:38:53;;;;;;;17.43;14.77;;;15.80;99.90;;;;;;10513136;28;20218;-72
2023/05/20 23:43:54;;;;;;;17.67;14.83;;;15.80;99.90;;;;;;10490436;28;20241;-72
2023/05/20 23:48:54;;;;;;;18.13;14.83;;;15.80;99.90;;;;;;10516407;28;20208;-73
2023/05/20 23:53:56;;;;;;;17.73;15.20;;;15.70;99.90;;;;;;10504189;28;20325;-73
2023/05/20 23:58:56;;;;;;;16.30;14.63;;;15.70;99.90;;;;;;10516175;28;20739;-73
